Time;durP1;ratioP1;P1;durP2;ratioP2;P2;SDS_P1;SDS_P2;PMS_P1;PMS_P2;Temp;Humidity;BMP_temperature;BMP_pressure;BME280_temperature;BME280_humidity;BME280_pressure;Samples;Min_cycle;Max_cycle;Signal;HPM_P1;HPM_P2
2022/10/26 00:00:15;;;;;;;10.80;4.90;;;;;;;18.44;100.00;150672.75;5074352;28;20224;-58
2022/10/26 00:02:42;;;;;;;7.90;5.00;;;;;;;18.34;100.00;150647.31;5074695;28;20185;-57
2022/10/26 00:05:09;;;;;;;9.80;5.37;;;;;;;18.60;100.00;150712.22;5073471;28;20654;-58
2022/10/26 00:07:36;;;;;;;12.10;5.30;;;;;;;18.52;100.00;150693.16;5074352;28;20189;-57
2022/10/26 00:10:06;;;;;;;14.47;5.43;;;;;;;18.61;100.00;150714.78;5074371;28;20192;-57
2022/10/26 00:12:33;;;;;;;6.77;4.90;;;;;;;18.64;100.00;150722.38;5074590;28;20211;-58
2022/10/26 00:15:00;;;;;;;12.10;4.70;;;;;;;18.63;100.00;150719.84;5074205;28;20192;-56
2022/10/26 00:17:27;;;;;;;11.47;5.40;;;;;;;18.61;100.00;150716.06;5074015;28;20254;-57
2022/10/26 00:19:53;;;;;;;7.20;5.03;;;;;;;18.65;100.00;150726.22;5074294;28;20545;-57
2022/10/26 00:22:20;;;;;;;6.23;5.10;;;;;;;18.73;100.00;150745.28;5074280;28;20555;-58
2022/10/26 00:24:47;;;;;;;6.30;4.60;;;;;;;18.71;100.00;150741.47;5074348;28;20612;-58
2022/10/26 00:27:16;;;;;;;7.53;4.63;;;;;;;18.59;100.00;150709.66;5074273;28;20207;-57
2022/10/26 00:29:42;;;;;;;6.73;4.93;;;;;;;18.67;100.00;150730.06;5073749;28;20240;-57
2022/10/26 00:32:09;;;;;;;5.00;4.70;;;;;;;18.69;100.00;150736.41;5073792;28;20185;-57
2022/10/26 00:34:37;;;;;;;10.63;4.63;;;;;;;18.66;100.00;150728.78;5073857;28;20211;-57
2022/10/26 00:37:04;;;;;;;12.20;4.60;;;;;;;18.77;100.00;150755.47;5073517;28;20181;-59
2022/10/26 00:39:31;;;;;;;5.17;4.63;;;;;;;18.87;100.00;150779.63;5073829;28;20204;-57
2022/10/26 00:41:58;;;;;;;8.13;4.50;;;;;;;18.84;100.00;150772.03;5073672;28;20195;-57
2022/10/26 00:45:10;;;;;;;6.60;4.60;;;;;;;18.89;100.00;150784.72;5073503;28;20188;-57
2022/10/26 00:47:44;;;;;;;7.80;5.00;;;;;;;18.85;100.00;150774.53;5073946;28;20199;-57
2022/10/26 00:50:17;;;;;;;12.87;4.83;;;;;;;18.88;100.00;150782.19;5073443;28;20181;-57
2022/10/26 00:52:44;;;;;;;5.83;4.53;;;;;;;18.78;100.00;150758.03;5073980;28;20220;-57
2022/10/26 00:55:11;;;;;;;13.33;5.07;;;;;;;18.85;100.00;150775.81;5073864;28;20627;-58
2022/10/26 00:57:39;;;;;;;6.03;4.70;;;;;;;18.82;100.00;150766.91;5073678;28;20655;-56
2022/10/26 01:00:08;;;;;;;5.80;5.37;;;;;;;18.90;100.00;150787.25;5073439;28;20221;-57
2022/10/26 01:02:35;;;;;;;8.63;6.07;;;;;;;18.76;100.00;150752.91;5073562;28;20184;-58
2022/10/26 01:05:06;;;;;;;8.33;5.50;;;;;;;18.89;100.00;150785.97;5073296;28;20185;-57
2022/10/26 01:07:34;;;;;;;5.50;5.00;;;;;;;18.90;100.00;150787.25;5073559;28;20547;-58
2022/10/26 01:10:01;;;;;;;11.70;5.83;;;;;;;18.90;100.00;150787.25;5073523;28;20191;-57
2022/10/26 01:12:28;;;;;;;5.80;5.40;;;;;;;18.82;100.00;150768.19;5073293;28;20246;-57
2022/10/26 01:14:55;;;;;;;8.77;4.70;;;;;;;18.69;100.00;150735.13;5073622;28;20195;-57
2022/10/26 01:17:43;;;;;;;7.80;5.63;;;;;;;18.75;100.00;150749.13;5072992;28;20184;-58
2022/10/26 01:20:45;;;;;;;9.30;5.83;;;;;;;18.84;100.00;150772.03;5073081;28;20235;-57
2022/10/26 01:23:21;;;;;;;11.13;5.83;;;;;;;18.54;100.00;150698.22;5073088;28;20195;-60
2022/10/26 01:26:16;;;;;;;5.63;5.23;;;;;;;18.78;100.00;150758.03;5072926;28;20188;-58
2022/10/26 01:29:05;;;;;;;7.00;5.70;;;;;;;18.77;100.00;150754.19;5070309;28;20193;-57
2022/10/26 01:31:41;;;;;;;10.80;5.87;;;;;;;18.69;100.00;150735.13;5072578;28;20211;-58
2022/10/26 01:34:13;;;;;;;6.67;5.90;;;;;;;18.65;100.00;150724.94;5072919;28;20296;-58
2022/10/26 01:36:44;;;;;;;6.30;5.80;;;;;;;18.62;100.00;150717.31;5072902;28;20195;-58
2022/10/26 01:39:18;;;;;;;6.93;6.30;;;;;;;18.65;100.00;150726.22;5072286;28;20292;-57
2022/10/26 01:41:48;;;;;;;10.90;5.97;;;;;;;18.63;100.00;150721.13;5072659;28;20627;-57
2022/10/26 01:44:21;;;;;;;6.60;6.00;;;;;;;18.65;100.00;150726.22;5072869;28;20639;-58
2022/10/26 01:46:53;;;;;;;7.73;6.33;;;;;;;18.58;100.00;150708.44;5071950;28;20196;-58
2022/10/26 01:49:23;;;;;;;15.93;6.10;;;;;;;18.60;100.00;150713.50;5072558;28;20571;-57
2022/10/26 01:51:50;;;;;;;7.87;6.90;;;;;;;18.52;100.00;150693.16;5072501;28;20558;-57
2022/10/26 01:54:18;;;;;;;9.63;6.40;;;;;;;18.54;100.00;150698.22;5072195;28;20224;-57
2022/10/26 01:56:48;;;;;;;8.00;7.27;;;;;;;18.54;100.00;150698.22;5072239;28;20215;-57
2022/10/26 01:59:44;;;;;;;7.07;6.47;;;;;;;18.44;100.00;150671.47;5072056;28;20208;-57
2022/10/26 02:02:41;;;;;;;10.67;6.60;;;;;;;18.41;100.00;150665.16;5072181;28;20191;-57
2022/10/26 02:05:31;;;;;;;11.93;7.20;;;;;;;18.34;100.00;150646.03;5072383;28;20220;-57
2022/10/26 02:08:10;;;;;;;7.40;6.73;;;;;;;17.96;100.00;150550.69;5072009;28;20184;-57
2022/10/26 02:10:46;;;;;;;11.47;6.90;;;;;;;18.16;100.00;150602.81;5071984;28;20529;-57
2022/10/26 02:13:19;;;;;;;8.43;6.43;;;;;;;18.10;100.00;150587.56;5072448;28;20555;-58
2022/10/26 02:15:53;;;;;;;8.10;7.23;;;;;;;17.95;100.00;150548.16;5071839;28;20191;-57
2022/10/26 02:18:30;;;;;;;10.33;7.47;;;;;;;17.95;100.00;150548.16;5072201;28;20624;-57
2022/10/26 02:21:02;;;;;;;10.80;7.80;;;;;;;17.86;100.00;150526.56;5072242;28;20226;-58
2022/10/26 02:23:32;;;;;;;8.10;7.30;;;;;;;17.56;100.00;150451.53;5072179;28;20691;-57
2022/10/26 02:26:01;;;;;;;10.30;7.60;;;;;;;17.63;100.00;150469.34;5072097;28;20618;-57
2022/10/26 02:28:33;;;;;;;16.40;8.27;;;;;;;17.61;100.00;150464.25;5072145;28;20189;-57
2022/10/26 02:31:02;;;;;;;10.87;8.33;;;;;;;17.50;100.00;150436.25;5071894;28;20230;-57
2022/10/26 02:33:33;;;;;;;14.57;7.93;;;;;;;17.35;100.00;150398.16;5071805;28;20188;-57
2022/10/26 02:36:04;;;;;;;14.77;8.50;;;;;;;17.41;100.00;150412.09;5072208;28;20275;-57
2022/10/26 02:38:34;;;;;;;13.37;8.00;;;;;;;17.37;100.00;150403.22;5071682;28;20287;-56
2022/10/26 02:41:02;;;;;;;8.03;7.53;;;;;;;17.17;100.00;150352.41;5071915;28;20202;-56
2022/10/26 02:43:33;;;;;;;14.20;8.90;;;;;;;17.40;100.00;150409.59;5072052;28;20195;-57
2022/10/26 02:46:08;;;;;;;10.00;9.07;;;;;;;17.27;100.00;150377.81;5071320;28;20207;-57
2022/10/26 02:48:36;;;;;;;11.67;8.67;;;;;;;17.36;100.00;150400.66;5071513;28;20184;-57
2022/10/26 02:51:10;;;;;;;11.93;8.53;;;;;;;17.32;100.00;150391.78;5071505;28;20212;-57
2022/10/26 02:53:45;;;;;;;10.83;8.50;;;;;;;17.26;100.00;150375.28;5071362;28;20195;-57
2022/10/26 02:56:18;;;;;;;14.77;8.40;;;;;;;17.13;100.00;150343.50;5071723;28;20555;-57
2022/10/26 02:58:50;;;;;;;9.50;8.70;;;;;;;17.18;100.00;150354.94;5073717;28;20216;-57
2022/10/26 03:01:17;;;;;;;9.67;8.60;;;;;;;17.21;100.00;150363.84;5074630;28;20254;-56
2022/10/26 03:03:46;;;;;;;11.57;9.17;;;;;;;17.20;100.00;150360.00;5075327;28;20191;-57
2022/10/26 03:06:20;;;;;;;11.13;8.83;;;;;;;17.19;100.00;150357.47;5075316;28;20187;-57
2022/10/26 03:08:47;;;;;;;13.37;8.50;;;;;;;17.13;100.00;150342.25;5075364;28;20185;-57
2022/10/26 03:11:14;;;;;;;9.10;8.30;;;;;;;17.20;100.00;150361.28;5075636;28;20296;-57
2022/10/26 03:13:40;;;;;;;12.30;8.70;;;;;;;17.07;100.00;150326.97;5075257;28;20192;-58
2022/10/26 03:16:08;;;;;;;9.10;8.27;;;;;;;16.75;100.00;150248.25;5075518;28;20189;-58
2022/10/26 03:18:34;;;;;;;9.70;7.70;;;;;;;16.79;100.00;150258.41;5075624;28;20200;-57
2022/10/26 03:21:03;;;;;;;11.10;8.67;;;;;;;16.81;100.00;150263.47;5075483;28;20536;-57
2022/10/26 03:23:30;;;;;;;8.57;7.87;;;;;;;16.65;100.00;150222.81;5075377;28;20185;-57
2022/10/26 03:25:57;;;;;;;14.40;8.43;;;;;;;16.78;100.00;150255.84;5075055;28;20189;-57
2022/10/26 03:28:24;;;;;;;10.00;9.00;;;;;;;16.79;100.00;150258.41;5075282;28;20613;-57
2022/10/26 03:30:51;;;;;;;8.33;7.57;;;;;;;16.77;100.00;150252.03;5074964;28;20228;-57
2022/10/26 03:33:18;;;;;;;8.40;7.70;;;;;;;16.74;100.00;150245.69;5075201;28;20773;-57
2022/10/26 03:35:45;;;;;;;13.60;8.57;;;;;;;16.66;100.00;150225.38;5075220;28;20188;-56
2022/10/26 03:38:13;;;;;;;8.87;7.73;;;;;;;16.74;100.00;150245.69;5074195;28;20197;-55
2022/10/26 03:40:41;;;;;;;9.70;8.07;;;;;;;16.69;100.00;150231.72;5075094;28;20575;-57
2022/10/26 03:43:08;;;;;;;17.07;9.20;;;;;;;16.46;100.00;150174.53;5074941;28;20559;-57
2022/10/26 03:45:35;;;;;;;13.53;8.97;;;;;;;16.53;100.00;150191.03;5074545;28;20199;-57
2022/10/26 03:48:01;;;;;;;9.63;8.73;;;;;;;16.60;100.00;150208.84;5074776;28;20193;-57
2022/10/26 03:50:28;;;;;;;8.77;7.93;;;;;;;16.27;100.00;150127.56;5074596;28;20231;-57
2022/10/26 03:52:57;;;;;;;9.33;8.27;;;;;;;16.28;100.00;150128.81;5074991;28;20632;-56
2022/10/26 03:55:25;;;;;;;8.50;7.67;;;;;;;16.28;100.00;150130.09;5074699;28;20276;-57
2022/10/26 03:57:53;;;;;;;8.97;8.10;;;;;;;16.28;100.00;150128.81;5074364;28;20193;-57
2022/10/26 04:00:20;;;;;;;9.13;8.23;;;;;;;16.17;100.00;150100.84;5074232;28;20205;-57
2022/10/26 04:02:55;;;;;;;15.13;8.93;;;;;;;16.07;100.00;147909.38;5074325;28;20189;-60
2022/10/26 04:05:22;;;;;;;9.43;8.50;;;;;;;16.22;100.00;148148.16;5073453;28;20184;-56
2022/10/26 04:07:52;;;;;;;15.03;8.60;;;;;;;16.09;100.00;148491.66;5074501;28;20311;-57
2022/10/26 04:10:19;;;;;;;12.30;8.03;;;;;;;16.22;100.00;150113.56;5073581;28;20271;-56
2022/10/26 04:12:48;;;;;;;11.20;8.87;;;;;;;16.34;100.00;150145.31;5074407;28;20207;-57
2022/10/26 04:15:15;;;;;;;9.67;8.67;;;;;;;16.46;100.00;150174.53;5074417;28;20721;-57
2022/10/26 04:17:42;;;;;;;9.63;8.83;;;;;;;16.52;100.00;150189.75;5074366;28;20212;-57
2022/10/26 04:20:10;;;;;;;10.60;9.23;;;;;;;16.65;100.00;150222.81;5074099;28;20796;-57
2022/10/26 04:22:38;;;;;;;18.73;9.77;;;;;;;16.71;100.00;150238.09;5074013;28;20185;-56
2022/10/26 04:25:07;;;;;;;10.20;9.40;;;;;;;16.70;100.00;150235.53;5073968;28;20280;-56
2022/10/26 04:27:34;;;;;;;16.33;9.80;;;;;;;16.60;100.00;150210.13;5073922;28;20193;-57
2022/10/26 04:30:04;;;;;;;18.03;9.67;;;;;;;16.63;100.00;150216.50;5073815;28;20228;-57
2022/10/26 04:32:31;;;;;;;13.37;8.60;;;;;;;16.63;100.00;150217.78;5074075;28;20609;-57
2022/10/26 04:34:58;;;;;;;9.73;8.73;;;;;;;16.55;100.00;150197.38;5073906;28;20185;-56
2022/10/26 04:37:25;;;;;;;11.53;8.23;;;;;;;16.57;100.00;150202.50;5073688;28;20188;-57
2022/10/26 04:39:52;;;;;;;10.57;8.37;;;;;;;16.59;100.00;150207.56;5072732;28;20690;-56
2022/10/26 04:42:18;;;;;;;8.97;8.07;;;;;;;16.43;100.00;150168.16;5073606;28;20189;-58
2022/10/26 04:44:45;;;;;;;11.90;9.07;;;;;;;16.47;100.00;150177.06;5073571;28;20200;-57
2022/10/26 04:47:14;;;;;;;12.50;8.27;;;;;;;16.41;100.00;150161.84;5073984;28;20223;-57
2022/10/26 04:49:40;;;;;;;11.97;9.43;;;;;;;16.42;100.00;150164.38;5073485;28;20177;-57
2022/10/26 04:52:07;;;;;;;13.67;10.00;;;;;;;16.40;100.00;150159.28;5073291;28;20184;-57
2022/10/26 04:54:34;;;;;;;10.77;9.67;;;;;;;16.27;100.00;144742.59;5073328;28;20195;-56
2022/10/26 04:57:01;;;;;;;12.93;9.07;;;;;;;16.27;100.00;146472.28;5073830;28;20192;-58
2022/10/26 04:59:28;;;;;;;12.33;10.37;;;;;;;16.43;100.00;149658.81;5073306;28;20209;-57
2022/10/26 05:01:55;;;;;;;10.67;9.70;;;;;;;16.47;100.00;150177.06;5073124;28;20200;-57
2022/10/26 05:04:23;;;;;;;81.73;13.27;;;;;;;16.54;100.00;150193.59;5072932;28;20188;-57
2022/10/26 05:06:52;;;;;;;101.90;14.50;;;;;;;16.54;100.00;150193.59;5073188;28;20235;-56
2022/10/26 05:09:19;;;;;;;53.23;12.40;;;;;;;16.55;100.00;150197.38;5073352;28;20541;-56
2022/10/26 05:11:46;;;;;;;30.20;9.93;;;;;;;16.54;100.00;150193.59;5072061;28;20556;-58
2022/10/26 05:14:13;;;;;;;19.00;8.93;;;;;;;16.60;100.00;150208.84;5072994;28;20195;-58
2022/10/26 05:16:40;;;;;;;18.90;9.73;;;;;;;16.56;100.00;150198.63;5073173;28;20268;-57
2022/10/26 05:19:07;;;;;;;18.30;9.43;;;;;;;16.85;100.00;150273.63;5073107;28;20578;-57
2022/10/26 05:21:35;;;;;;;13.50;8.77;;;;;;;17.00;100.00;150310.47;5071836;28;20550;-57
2022/10/26 05:24:02;;;;;;;15.10;8.43;;;;;;;17.11;100.00;150338.41;5072839;28;20181;-58
2022/10/26 05:26:30;;;;;;;11.33;8.30;;;;;;;17.03;100.00;150318.09;5073065;28;20582;-57
2022/10/26 05:28:57;;;;;;;14.73;7.93;;;;;;;17.23;100.00;150367.63;5073165;28;20615;-57
2022/10/26 05:31:24;;;;;;;15.43;8.07;;;;;;;17.18;100.00;150354.94;5072981;28;20184;-58
2022/10/26 05:33:51;;;;;;;15.67;8.30;;;;;;;17.22;100.00;150365.13;5072510;28;20189;-58
2022/10/26 05:36:18;;;;;;;17.53;7.83;;;;;;;17.27;100.00;150377.81;5072170;28;20199;-57
2022/10/26 05:38:47;;;;;;;13.37;8.50;;;;;;;17.23;100.00;150368.91;5072560;28;20185;-57
2022/10/26 05:41:14;;;;;;;10.97;8.73;;;;;;;17.44;100.00;150419.75;5072343;28;20187;-57
2022/10/26 05:43:41;;;;;;;8.83;7.77;;;;;;;17.55;100.00;150448.97;5072619;28;20184;-58
2022/10/26 05:46:08;;;;;;;11.33;7.83;;;;;;;17.60;100.00;150461.75;5072323;28;20390;-58
2022/10/26 05:48:34;;;;;;;13.70;7.57;;;;;;;17.75;100.00;150499.84;5072279;28;20189;-57
2022/10/26 05:51:01;;;;;;;9.60;7.57;;;;;;;17.65;100.00;150474.41;5072363;28;20193;-57
2022/10/26 05:53:29;;;;;;;11.23;8.47;;;;;;;17.55;100.00;150448.97;5072032;28;20276;-58
2022/10/26 05:55:58;;;;;;;33.10;8.43;;;;;;;17.63;100.00;150469.34;5071041;28;20195;-57
2022/10/26 05:58:26;;;;;;;10.60;8.57;;;;;;;17.57;100.00;150452.75;5072128;28;20642;-58
2022/10/26 06:01:07;;;;;;;15.23;8.80;;;;;;;17.61;100.00;150464.25;5072217;28;20212;-57
2022/10/26 06:03:55;;;;;;;15.87;8.70;;;;;;;17.79;100.00;150508.72;5071975;28;20196;-59
2022/10/26 06:06:22;;;;;;;10.03;8.00;;;;;;;17.91;100.00;150539.22;5071871;28;20283;-58
2022/10/26 06:08:50;;;;;;;12.93;7.93;;;;;;;17.97;100.00;150553.22;5072804;28;20273;-58
2022/10/26 06:11:19;;;;;;;11.13;8.13;;;;;;;18.03;100.00;150568.50;5071616;28;20180;-59
2022/10/26 06:13:47;;;;;;;21.17;8.00;;;;;;;18.12;100.00;150592.63;5072038;28;20667;-59
2022/10/26 06:16:29;;;;;;;11.17;7.57;;;;;;;18.15;100.00;150600.28;5070687;28;20202;-58
2022/10/26 06:19:06;;;;;;;19.10;9.00;;;;;;;18.39;100.00;150660.03;5071584;28;20185;-59
2022/10/26 06:21:49;;;;;;;29.70;10.20;;;;;;;18.52;100.00;150693.16;5071417;28;20188;-57
2022/10/26 06:24:26;;;;;;;43.20;14.97;;;;;;;18.60;100.00;150713.50;5071685;28;20189;-57
2022/10/26 06:27:04;;;;;;;42.73;15.30;;;;;;;18.74;100.00;150747.84;5071810;28;20559;-57
2022/10/26 06:29:41;;;;;;;39.20;13.03;;;;;;;18.73;100.00;150744.00;5071329;28;20219;-57
2022/10/26 06:32:10;;;;;;;20.27;9.87;;;;;;;18.68;100.00;150732.56;5071966;28;20596;-57
2022/10/26 06:34:39;;;;;;;35.53;11.33;;;;;;;18.58;100.00;150707.16;5071697;28;20189;-58
2022/10/26 06:37:08;;;;;;;35.47;13.53;;;;;;;18.58;100.00;150707.16;5071904;28;20192;-57
2022/10/26 06:39:42;;;;;;;36.50;12.30;;;;;;;18.31;100.00;150639.69;5071888;28;20599;-56
2022/10/26 06:42:11;;;;;;;26.40;12.33;;;;;;;18.40;100.00;150661.31;5071859;28;20189;-58
2022/10/26 06:44:41;;;;;;;16.43;10.03;;;;;;;18.37;100.00;150653.69;5071709;28;20555;-57
2022/10/26 06:47:16;;;;;;;30.93;10.03;;;;;;;18.29;100.00;150633.34;5072013;28;20201;-57
2022/10/26 06:49:58;;;;;;;18.53;8.83;;;;;;;18.22;100.00;150616.78;5071540;28;20280;-57
2022/10/26 06:52:32;;;;;;;8.83;8.07;;;;;;;18.33;100.00;150644.75;5071456;28;20214;-58
2022/10/26 06:54:59;;;;;;;32.27;9.60;;;;;;;18.43;100.00;150668.94;5071924;28;20594;-57
2022/10/26 06:57:34;;;;;;;26.90;11.00;;;;;;;18.45;100.00;150674.03;5071336;28;20185;-57
2022/10/26 07:00:05;;;;;;;29.67;10.33;;;;;;;18.39;100.00;150660.03;5070699;28;20717;-58
2022/10/26 07:02:32;;;;;;;40.27;11.20;;;;;;;18.29;100.00;150633.34;5071163;28;20189;-57
2022/10/26 07:04:59;;;;;;;31.53;10.97;;;;;;;18.26;100.00;150628.25;5053217;28;20250;-58
2022/10/26 07:07:30;;;;;;;17.97;9.53;;;;;;;18.36;100.00;150652.41;5071511;28;20706;-57
2022/10/26 07:09:57;;;;;;;17.40;9.23;;;;;;;18.38;100.00;150657.47;5071535;28;20701;-57
2022/10/26 07:12:26;;;;;;;20.40;9.60;;;;;;;18.45;100.00;150675.31;5071278;28;20185;-58
2022/10/26 07:14:55;;;;;;;381.73;318.17;;;;;;;18.61;100.00;150714.78;5071218;28;20204;-59
2022/10/26 07:17:21;;;;;;;30.53;19.20;;;;;;;18.83;100.00;150769.47;5071532;28;20191;-56
2022/10/26 07:19:48;;;;;;;18.73;10.90;;;;;;;18.97;100.00;150805.06;5071086;28;20295;-58
2022/10/26 07:22:15;;;;;;;16.70;10.53;;;;;;;19.00;100.00;150812.72;5071163;28;20632;-58
2022/10/26 07:24:42;;;;;;;27.57;11.20;;;;;;;19.08;100.00;150833.06;5070876;28;20280;-58
2022/10/26 07:27:09;;;;;;;21.53;11.73;;;;;;;19.37;100.00;150906.88;5071855;28;20195;-57
2022/10/26 07:29:36;;;;;;;16.98;11.18;;;;;;;20.57;100.00;151208.69;5071259;28;20224;-58
2022/10/26 07:32:05;;;;;;;17.25;10.90;;;;;;;21.63;100.00;151476.28;5070998;28;20200;-58
2022/10/26 07:34:31;;;;;;;25.30;11.02;;;;;;;22.47;100.00;151686.69;5071282;28;20189;-59
2022/10/26 07:37:01;;;;;;;19.15;11.57;;;;;;;23.13;100.00;151855.09;5071425;28;20204;-60
2022/10/26 07:39:31;;;;;;;25.08;11.07;;;;;;;24.13;100.00;152107.88;5071067;28;20185;-59
2022/10/26 07:42:01;;;;;;;19.65;12.15;;;;;;;24.82;100.00;152281.59;5070844;28;20181;-59
2022/10/26 07:44:28;;;;;;;16.88;11.18;;;;;;;25.34;100.00;152413.19;5071526;28;20192;-60
2022/10/26 07:46:55;;;;;;;18.65;11.40;;;;;;;25.72;98.45;152507.81;5074338;28;20255;-60
2022/10/26 07:49:24;;;;;;;13.10;8.85;;;;;;;26.13;91.87;152611.38;5074682;28;20295;-59
2022/10/26 07:51:53;;;;;;;8.90;7.93;;;;;;;26.78;87.96;152777.59;5074350;28;20196;-59
2022/10/26 07:54:20;;;;;;;7.93;7.28;;;;;;;27.06;84.66;152846.75;5074595;28;20559;-59
2022/10/26 07:56:49;;;;;;;8.40;7.78;;;;;;;27.82;79.76;153040.00;5073791;28;20272;-59
2022/10/26 07:59:17;;;;;;;11.95;10.18;;;;;;;27.66;78.65;153000.34;5074581;28;20615;-60
2022/10/26 08:01:44;;;;;;;7.95;7.47;;;;;;;27.48;76.21;152954.25;5074115;28;20280;-61
2022/10/26 08:04:11;;;;;;;7.80;7.18;;;;;;;27.91;73.78;153061.75;5056821;28;20555;-60
2022/10/26 08:06:42;;;;;;;4.80;4.53;;;;;;;28.56;69.12;153226.88;5073916;28;20188;-60
2022/10/26 08:09:11;;;;;;;5.63;5.25;;;;;;;28.90;66.47;153312.72;5076210;28;20313;-59
2022/10/26 08:11:38;;;;;;;6.28;5.80;;;;;;;29.58;63.70;153485.69;5074322;28;20184;-61
2022/10/26 08:14:05;;;;;;;4.50;4.07;;;;;;;29.85;60.43;153553.63;5074816;28;20539;-59
2022/10/26 08:16:34;;;;;;;4.55;4.25;;;;;;;29.01;63.11;153342.22;5074480;28;20238;-59
2022/10/26 08:19:01;;;;;;;4.93;4.15;;;;;;;28.00;66.11;153084.78;5074019;28;20211;-59
2022/10/26 08:21:28;;;;;;;6.88;4.25;;;;;;;26.58;73.78;152726.47;5073955;28;20567;-58
2022/10/26 08:23:57;;;;;;;8.82;5.20;;;;;;;26.23;78.25;152636.94;5073817;28;20567;-58
2022/10/26 08:26:28;;;;;;;4.95;4.18;;;;;;;26.42;77.04;152684.28;5074089;28;20220;-59
2022/10/26 08:28:57;;;;;;;5.10;4.70;;;;;;;26.50;78.17;152706.00;5074376;28;20189;-59
2022/10/26 08:31:24;;;;;;;5.07;4.60;;;;;;;27.05;75.47;152845.47;5073959;28;20278;-59
2022/10/26 08:33:51;;;;;;;7.97;4.40;;;;;;;26.94;74.66;152816.06;5074402;28;20193;-59
2022/10/26 08:36:23;;;;;;;8.23;5.35;;;;;;;27.08;74.26;152853.13;5073810;28;20234;-59
2022/10/26 08:38:51;;;;;;;7.63;6.57;;;;;;;27.15;73.99;152871.06;5073435;28;20189;-59
2022/10/26 08:41:23;;;;;;;8.00;6.53;;;;;;;26.70;76.83;152755.88;5073771;28;20204;-59
2022/10/26 08:43:54;;;;;;;9.15;6.15;;;;;;;26.25;79.16;152642.09;5074019;28;20188;-59
2022/10/26 08:46:27;;;;;;;7.47;5.72;;;;;;;25.91;81.46;152557.69;5073428;28;20208;-58
2022/10/26 08:49:02;;;;;;;6.43;5.68;;;;;;;25.88;83.65;152550.03;5073226;28;20224;-59
2022/10/26 08:51:36;;;;;;;7.20;5.75;;;;;;;25.57;84.57;152470.75;5073785;28;20547;-59
2022/10/26 08:54:12;;;;;;;11.75;4.20;;;;;;;26.44;78.59;152689.41;5073529;28;20271;-58
2022/10/26 08:56:44;;;;;;;7.53;3.95;;;;;;;28.60;69.66;153237.19;5073372;28;20577;-59
2022/10/26 08:59:17;;;;;;;4.05;2.83;;;;;;;29.48;62.82;153460.09;5055351;28;20283;-59
2022/10/26 09:01:44;;;;;;;4.50;4.18;;;;;;;30.95;58.21;153833.13;5056183;28;20591;-59
2022/10/26 09:04:13;;;;;;;5.55;4.90;;;;;;;29.63;60.32;153497.22;5073224;28;20536;-59
2022/10/26 09:06:50;;;;;;;6.10;5.80;;;;;;;28.93;64.04;153320.44;5073823;28;20508;-59
2022/10/26 09:09:21;;;;;;;6.47;5.90;;;;;;;28.72;64.88;153267.94;5058547;28;20271;-60
2022/10/26 09:12:02;;;;;;;5.60;5.30;;;;;;;28.45;66.14;153198.75;5084629;28;20180;-59
2022/10/26 09:14:42;;;;;;;3.17;2.97;;;;;;;27.95;62.97;153071.97;5093174;28;20188;-58
2022/10/26 09:17:18;;;;;;;2.80;2.63;;;;;;;28.47;63.08;153205.19;5093451;28;20551;-59
2022/10/26 09:19:59;;;;;;;3.10;2.90;;;;;;;29.72;59.50;153521.59;5090025;28;20189;-59
2022/10/26 09:22:34;;;;;;;4.13;2.58;;;;;;;31.39;53.69;153943.47;5075652;28;20188;-59
2022/10/26 09:25:17;;;;;;;3.38;2.58;;;;;;;32.12;52.20;154130.84;5054883;28;20199;-59
2022/10/26 09:27:49;;;;;;;3.65;2.75;;;;;;;32.43;50.02;154209.13;5072499;28;20273;-59
2022/10/26 09:30:18;;;;;;;3.15;2.95;;;;;;;31.71;50.46;154025.59;5072263;28;20308;-58
2022/10/26 09:32:47;;;;;;;3.70;2.50;;;;;;;30.77;51.45;153788.25;5072293;28;20185;-58
2022/10/26 09:35:19;;;;;;;6.35;3.20;;;;;;;28.90;55.56;153312.72;5073444;28;20551;-58
2022/10/26 09:37:51;;;;;;;3.20;3.00;;;;;;;28.54;58.84;153221.78;5072865;28;20615;-59
2022/10/26 09:40:24;;;;;;;2.45;2.35;;;;;;;29.34;57.31;153425.50;5072234;28;20215;-59
2022/10/26 09:42:59;;;;;;;2.95;2.70;;;;;;;30.62;55.18;153748.53;5072053;28;20192;-59
2022/10/26 09:45:30;;;;;;;6.60;3.47;;;;;;;31.73;50.84;154032.03;5072436;28;20196;-59
2022/10/26 09:48:05;;;;;;;4.18;2.58;;;;;;;32.81;47.54;154305.41;5072343;28;20199;-60
2022/10/26 09:50:35;;;;;;;2.97;2.40;;;;;;;33.85;45.11;154570.03;5090130;28;20187;-59
2022/10/26 09:53:02;;;;;;;3.83;2.47;;;;;;;34.42;43.37;154713.91;5092483;28;20661;-59
2022/10/26 09:55:30;;;;;;;3.22;2.95;;;;;;;35.03;41.58;154869.47;5092663;28;20624;-60
2022/10/26 09:58:02;;;;;;;3.47;3.03;;;;;;;34.86;41.72;154825.78;5092374;28;20199;-59
2022/10/26 10:00:30;;;;;;;5.93;3.58;;;;;;;34.91;42.19;154837.34;5092710;28;20208;-59
2022/10/26 10:02:59;;;;;;;3.40;3.10;;;;;;;35.63;39.63;155022.53;5092625;28;20225;-60
2022/10/26 10:05:35;;;;;;;2.70;2.50;;;;;;;34.51;41.43;154737.06;5092455;28;20184;-59
2022/10/26 10:08:16;;;;;;;3.00;2.72;;;;;;;34.06;41.78;154622.69;5091756;28;20191;-58
2022/10/26 10:10:58;;;;;;;4.20;2.55;;;;;;;33.28;41.98;154423.56;5092180;28;20179;-58
2022/10/26 10:13:30;;;;;;;4.90;2.50;;;;;;;33.48;42.11;154474.97;5091849;28;20184;-59
2022/10/26 10:16:08;;;;;;;2.33;2.22;;;;;;;33.16;42.71;154392.75;5091666;28;20279;-60
2022/10/26 10:18:35;;;;;;;2.35;2.25;;;;;;;32.78;42.17;154297.72;5091568;28;20658;-58
2022/10/26 10:21:04;;;;;;;2.83;1.67;;;;;;;33.14;40.31;154387.66;5092028;28;20578;-59
2022/10/26 10:23:36;;;;;;;1.92;1.65;;;;;;;34.35;38.88;154695.94;5091743;28;20229;-60
2022/10/26 10:26:06;;;;;;;4.65;1.85;;;;;;;36.20;36.59;155165.31;5092585;28;20241;-60
2022/10/26 10:28:35;;;;;;;2.03;1.90;;;;;;;36.62;36.55;155274.63;5091679;28;20184;-61
2022/10/26 10:31:04;;;;;;;3.92;2.42;;;;;;;36.45;35.58;155230.84;5091719;28;20610;-62
2022/10/26 10:33:39;;;;;;;3.45;2.10;;;;;;;36.07;35.15;155133.09;5091757;28;20194;-58
2022/10/26 10:36:10;;;;;;;1.90;1.90;;;;;;;36.63;34.92;155277.22;5091474;28;20187;-60
2022/10/26 10:38:40;;;;;;;2.10;1.95;;;;;;;35.48;36.94;154983.88;5091669;28;20524;-59
2022/10/26 10:41:17;;;;;;;6.78;2.35;;;;;;;34.53;37.00;154742.22;5091460;28;20208;-60
2022/10/26 10:43:48;;;;;;;2.40;2.30;;;;;;;33.19;38.71;154400.44;5091462;28;20184;-60
2022/10/26 10:46:21;;;;;;;2.60;2.08;;;;;;;31.57;41.45;153990.94;5091763;28;20204;-59
2022/10/26 10:48:52;;;;;;;3.55;2.38;;;;;;;30.11;44.00;153620.31;5091292;28;20188;-59
2022/10/26 10:51:22;;;;;;;2.58;2.47;;;;;;;29.86;47.28;153556.19;5091776;28;20655;-59
2022/10/26 10:53:51;;;;;;;3.25;2.95;;;;;;;29.01;48.96;153340.94;5091647;28;20192;-59
2022/10/26 10:56:38;;;;;;;2.75;2.53;;;;;;;28.63;51.76;153243.56;5073333;28;20204;-58
2022/10/26 10:59:31;;;;;;;2.80;2.60;;;;;;;28.30;52.33;153161.66;5091390;28;20183;-58
2022/10/26 11:02:18;;;;;;;5.43;2.15;;;;;;;27.99;53.92;153083.50;5087577;28;20306;-58
2022/10/26 11:05:08;;;;;;;4.05;2.75;;;;;;;27.75;56.36;153020.81;5075724;28;20188;-58
2022/10/26 11:07:44;;;;;;;6.22;2.65;;;;;;;27.69;55.05;153008.00;5091550;28;20188;-59
2022/10/26 11:10:17;;;;;;;3.28;2.47;;;;;;;27.25;55.31;152896.63;5091329;28;20283;-58
2022/10/26 11:12:51;;;;;;;2.30;2.20;;;;;;;26.81;55.69;152785.31;5091680;28;20210;-57
2022/10/26 11:15:23;;;;;;;2.22;2.10;;;;;;;26.77;56.67;152775.09;5091754;28;20188;-58
2022/10/26 11:17:58;;;;;;;2.40;2.30;;;;;;;26.95;58.33;152818.56;5091559;28;20629;-58
2022/10/26 11:20:28;;;;;;;3.70;2.63;;;;;;;27.12;59.74;152862.06;5092538;28;20180;-58
2022/10/26 11:23:03;;;;;;;2.55;2.35;;;;;;;27.33;56.86;152915.78;5095253;28;20212;-58
2022/10/26 11:25:35;;;;;;;3.20;2.20;;;;;;;27.40;54.54;152932.47;5095181;28;20194;-60
2022/10/26 11:28:11;;;;;;;2.53;2.30;;;;;;;27.25;54.42;152896.63;5095210;28;20275;-59
2022/10/26 11:30:43;;;;;;;5.80;4.90;;;;;;;27.09;62.76;152854.41;5095059;28;20727;-57